sensor_id;sensor_type;location;lat;lon;timestamp;temperature;humidity
27747;DHT22;15138;51.012;4.692;2023-03-14T03:02:17;10.50;1.00
27747;DHT22;15138;51.012;4.692;2023-03-14T03:04:45;10.60;99.90
27747;DHT22;15138;51.012;4.692;2023-03-14T03:07:14;10.60;99.90
27747;DHT22;15138;51.012;4.692;2023-03-14T03:09:42;10.60;1.00
27747;DHT22;15138;51.012;4.692;2023-03-14T03:12:11;10.50;99.90
27747;DHT22;15138;51.012;4.692;2023-03-14T03:14:39;10.50;99.90
27747;DHT22;15138;51.012;4.692;2023-03-14T03:17:09;10.50;99.90
27747;DHT22;15138;51.012;4.692;2023-03-14T03:19:37;10.30;99.90
27747;DHT22;15138;51.012;4.692;2023-03-14T03:22:06;10.30;99.90
27747;DHT22;15138;51.012;4.692;2023-03-14T03:24:35;10.30;99.90
27747;DHT22;15138;51.012;4.692;2023-03-14T03:27:03;10.20;1.00
27747;DHT22;15138;51.012;4.692;2023-03-14T03:29:31;10.30;1.00
27747;DHT22;15138;51.012;4.692;2023-03-14T03:32:00;10.30;1.00
27747;DHT22;15138;51.012;4.692;2023-03-14T03:34:29;10.30;1.00
27747;DHT22;15138;51.012;4.692;2023-03-14T03:36:58;10.20;1.00
27747;DHT22;15138;51.012;4.692;2023-03-14T03:39:27;10.20;1.00
27747;DHT22;15138;51.012;4.692;2023-03-14T03:41:55;10.20;1.00
27747;DHT22;15138;51.012;4.692;2023-03-14T03:44:23;10.30;1.00
27747;DHT22;15138;51.012;4.692;2023-03-14T03:46:52;10.20;46.90
27747;DHT22;15138;51.012;4.692;2023-03-14T03:49:20;10.20;99.90
27747;DHT22;15138;51.012;4.692;2023-03-14T03:51:50;10.20;99.90
27747;DHT22;15138;51.012;4.692;2023-03-14T03:54:19;10.20;99.90
27747;DHT22;15138;51.012;4.692;2023-03-14T03:56:47;10.20;99.90
27747;DHT22;15138;51.012;4.692;2023-03-14T03:59:15;10.20;99.90
27747;DHT22;15138;51.012;4.692;2023-03-14T04:01:44;10.10;1.00
27747;DHT22;15138;51.012;4.692;2023-03-14T04:04:12;10.30;1.00
27747;DHT22;15138;51.012;4.692;2023-03-14T04:06:41;10.30;1.00
27747;DHT22;15138;51.012;4.692;2023-03-14T04:09:12;10.40;1.00
27747;DHT22;15138;51.012;4.692;2023-03-14T04:11:40;10.30;1.00
27747;DHT22;15138;51.012;4.692;2023-03-14T04:14:09;10.30;62.80
27747;DHT22;15138;51.012;4.692;2023-03-14T04:16:37;10.40;99.90
27747;DHT22;15138;51.012;4.692;2023-03-14T04:19:06;10.20;99.90
27747;DHT22;15138;51.012;4.692;2023-03-14T04:21:34;10.30;99.90
27747;DHT22;15138;51.012;4.692;2023-03-14T04:24:04;10.40;99.90
27747;DHT22;15138;51.012;4.692;2023-03-14T04:26:34;10.40;99.90
27747;DHT22;15138;51.012;4.692;2023-03-14T04:29:02;10.40;99.90
27747;DHT22;15138;51.012;4.692;2023-03-14T04:31:30;10.40;99.90
27747;DHT22;15138;51.012;4.692;2023-03-14T04:33:59;10.50;99.90
27747;DHT22;15138;51.012;4.692;2023-03-14T04:36:28;10.30;99.90
27747;DHT22;15138;51.012;4.692;2023-03-14T04:38:56;10.30;99.90
27747;DHT22;15138;51.012;4.692;2023-03-14T04:41:24;10.30;99.90
27747;DHT22;15138;51.012;4.692;2023-03-14T04:43:55;10.50;99.90
27747;DHT22;15138;51.012;4.692;2023-03-14T04:46:24;10.50;99.90
27747;DHT22;15138;51.012;4.692;2023-03-14T04:48:52;10.50;99.90
27747;DHT22;15138;51.012;4.692;2023-03-14T04:51:23;10.40;99.90
27747;DHT22;15138;51.012;4.692;2023-03-14T04:53:54;10.40;99.90
27747;DHT22;15138;51.012;4.692;2023-03-14T04:56:22;10.40;99.90
27747;DHT22;15138;51.012;4.692;2023-03-14T04:58:50;10.60;1.00
27747;DHT22;15138;51.012;4.692;2023-03-14T05:03:49;10.50;1.00
27747;DHT22;15138;51.012;4.692;2023-03-14T05:06:17;10.50;1.00
27747;DHT22;15138;51.012;4.692;2023-03-14T05:08:45;10.50;99.90
27747;DHT22;15138;51.012;4.692;2023-03-14T05:11:14;10.40;99.90
27747;DHT22;15138;51.012;4.692;2023-03-14T05:18:41;10.50;1.00
27747;DHT22;15138;51.012;4.692;2023-03-14T05:21:10;10.30;99.90
27747;DHT22;15138;51.012;4.692;2023-03-14T05:26:07;10.40;99.90
27747;DHT22;15138;51.012;4.692;2023-03-14T05:28:35;11.50;99.90
27747;DHT22;15138;51.012;4.692;2023-03-14T05:31:07;10.50;99.90
27747;DHT22;15138;51.012;4.692;2023-03-14T05:33:35;10.30;99.90
27747;DHT22;15138;51.012;4.692;2023-03-14T05:36:06;10.50;99.90
27747;DHT22;15138;51.012;4.692;2023-03-14T05:38:35;10.40;99.90
27747;DHT22;15138;51.012;4.692;2023-03-14T05:41:04;10.80;1.00
27747;DHT22;15138;51.012;4.692;2023-03-14T05:43:32;10.50;99.90
27747;DHT22;15138;51.012;4.692;2023-03-14T05:46:00;10.40;1.00
27747;DHT22;15138;51.012;4.692;2023-03-14T05:48:29;10.60;99.90
27747;DHT22;15138;51.012;4.692;2023-03-14T05:50:58;10.50;99.90
27747;DHT22;15138;51.012;4.692;2023-03-14T05:53:28;10.60;99.90
27747;DHT22;15138;51.012;4.692;2023-03-14T05:55:57;10.40;99.90
27747;DHT22;15138;51.012;4.692;2023-03-14T05:58:26;10.50;99.90
27747;DHT22;15138;51.012;4.692;2023-03-14T06:00:54;10.50;1.00
27747;DHT22;15138;51.012;4.692;2023-03-14T06:03:22;10.50;1.00
27747;DHT22;15138;51.012;4.692;2023-03-14T06:08:20;10.60;99.90
27747;DHT22;15138;51.012;4.692;2023-03-14T06:13:18;10.50;99.90
27747;DHT22;15138;51.012;4.692;2023-03-14T06:15:47;10.50;66.30
27747;DHT22;15138;51.012;4.692;2023-03-14T06:18:15;10.60;1.00
27747;DHT22;15138;51.012;4.692;2023-03-14T06:23:12;10.70;99.90
27747;DHT22;15138;51.012;4.692;2023-03-14T06:25:40;10.60;1.00
27747;DHT22;15138;51.012;4.692;2023-03-14T06:28:10;10.80;99.90
27747;DHT22;15138;51.012;4.692;2023-03-14T06:30:41;10.80;1.00
27747;DHT22;15138;51.012;4.692;2023-03-14T06:35:37;10.50;99.90
27747;DHT22;15138;51.012;4.692;2023-03-14T06:38:06;10.50;99.90
27747;DHT22;15138;51.012;4.692;2023-03-14T06:40:34;10.60;1.00
27747;DHT22;15138;51.012;4.692;2023-03-14T06:43:03;10.50;1.00
27747;DHT22;15138;51.012;4.692;2023-03-14T06:45:32;10.50;8.00
27747;DHT22;15138;51.012;4.692;2023-03-14T06:48:01;10.60;63.60
27747;DHT22;15138;51.012;4.692;2023-03-14T06:50:29;10.50;1.00
27747;DHT22;15138;51.012;4.692;2023-03-14T06:52:57;10.60;66.10
27747;DHT22;15138;51.012;4.692;2023-03-14T06:55:26;10.60;99.90
27747;DHT22;15138;51.012;4.692;2023-03-14T06:57:54;10.50;1.00
27747;DHT22;15138;51.012;4.692;2023-03-14T07:00:23;10.60;99.90
27747;DHT22;15138;51.012;4.692;2023-03-14T07:02:53;10.40;1.00
27747;DHT22;15138;51.012;4.692;2023-03-14T07:05:21;10.40;99.90
27747;DHT22;15138;51.012;4.692;2023-03-14T07:07:50;10.20;99.90
27747;DHT22;15138;51.012;4.692;2023-03-14T07:10:19;10.20;99.90
27747;DHT22;15138;51.012;4.692;2023-03-14T07:15:16;10.10;99.90
27747;DHT22;15138;51.012;4.692;2023-03-14T07:17:45;10.00;99.90
27747;DHT22;15138;51.012;4.692;2023-03-14T07:20:16;9.90;99.90
27747;DHT22;15138;51.012;4.692;2023-03-14T07:22:47;9.80;99.90
27747;DHT22;15138;51.012;4.692;2023-03-14T07:25:16;9.70;12.50
27747;DHT22;15138;51.012;4.692;2023-03-14T07:27:45;9.70;32.30
27747;DHT22;15138;51.012;4.692;2023-03-14T07:30:14;9.60;1.00
27747;DHT22;15138;51.012;4.692;2023-03-14T07:32:43;9.50;1.00
27747;DHT22;15138;51.012;4.692;2023-03-14T07:35:12;9.50;1.00
27747;DHT22;15138;51.012;4.692;2023-03-14T07:37:41;9.50;1.00
27747;DHT22;15138;51.012;4.692;2023-03-14T07:40:11;9.40;1.00
27747;DHT22;15138;51.012;4.692;2023-03-14T07:42:41;9.30;99.90
27747;DHT22;15138;51.012;4.692;2023-03-14T07:45:11;9.40;1.00
27747;DHT22;15138;51.012;4.692;2023-03-14T07:47:39;9.30;99.90
27747;DHT22;15138;51.012;4.692;2023-03-14T07:50:09;9.40;3.30
27747;DHT22;15138;51.012;4.692;2023-03-14T07:52:38;9.40;1.00
27747;DHT22;15138;51.012;4.692;2023-03-14T07:55:08;9.10;99.90
27747;DHT22;15138;51.012;4.692;2023-03-14T07:57:37;9.00;99.90
27747;DHT22;15138;51.012;4.692;2023-03-14T08:00:07;9.10;99.90
27747;DHT22;15138;51.012;4.692;2023-03-14T08:02:35;9.10;99.90
27747;DHT22;15138;51.012;4.692;2023-03-14T08:05:04;9.10;99.90
27747;DHT22;15138;51.012;4.692;2023-03-14T08:07:33;9.10;99.90
27747;DHT22;15138;51.012;4.692;2023-03-14T08:10:01;9.10;99.90
27747;DHT22;15138;51.012;4.692;2023-03-14T08:12:32;9.10;99.90
27747;DHT22;15138;51.012;4.692;2023-03-14T08:15:00;9.10;99.90
27747;DHT22;15138;51.012;4.692;2023-03-14T08:17:29;9.10;99.90
27747;DHT22;15138;51.012;4.692;2023-03-14T08:19:57;9.10;99.90
27747;DHT22;15138;51.012;4.692;2023-03-14T08:22:26;9.10;99.90
27747;DHT22;15138;51.012;4.692;2023-03-14T08:24:54;9.20;99.90
27747;DHT22;15138;51.012;4.692;2023-03-14T08:27:23;9.10;99.90
27747;DHT22;15138;51.012;4.692;2023-03-14T08:29:52;9.20;99.90
27747;DHT22;15138;51.012;4.692;2023-03-14T08:32:21;9.30;99.90
27747;DHT22;15138;51.012;4.692;2023-03-14T08:34:50;9.40;99.90
27747;DHT22;15138;51.012;4.692;2023-03-14T08:37:18;9.40;99.90
27747;DHT22;15138;51.012;4.692;2023-03-14T08:39:53;9.30;10.10
27747;DHT22;15138;51.012;4.692;2023-03-14T08:42:22;9.30;62.40
27747;DHT22;15138;51.012;4.692;2023-03-14T08:44:52;9.40;59.30
27747;DHT22;15138;51.012;4.692;2023-03-14T08:47:20;9.40;14.90
27747;DHT22;15138;51.012;4.692;2023-03-14T08:49:48;9.50;1.00
27747;DHT22;15138;51.012;4.692;2023-03-14T08:52:17;9.50;1.00
27747;DHT22;15138;51.012;4.692;2023-03-14T08:54:46;9.60;1.00
27747;DHT22;15138;51.012;4.692;2023-03-14T08:57:14;9.60;1.00
27747;DHT22;15138;51.012;4.692;2023-03-14T08:59:43;9.60;1.00
27747;DHT22;15138;51.012;4.692;2023-03-14T09:02:12;9.60;1.00
27747;DHT22;15138;51.012;4.692;2023-03-14T09:04:41;9.60;1.00
27747;DHT22;15138;51.012;4.692;2023-03-14T09:07:09;9.50;1.00
27747;DHT22;15138;51.012;4.692;2023-03-14T09:09:38;9.60;1.00
27747;DHT22;15138;51.012;4.692;2023-03-14T09:12:07;9.60;1.00
27747;DHT22;15138;51.012;4.692;2023-03-14T09:14:35;9.60;99.90
27747;DHT22;15138;51.012;4.692;2023-03-14T09:17:04;9.50;99.90
27747;DHT22;15138;51.012;4.692;2023-03-14T09:19:34;9.60;99.90
27747;DHT22;15138;51.012;4.692;2023-03-14T09:22:03;9.50;99.90
27747;DHT22;15138;51.012;4.692;2023-03-14T09:24:31;9.50;99.90
27747;DHT22;15138;51.012;4.692;2023-03-14T09:27:00;9.30;99.90
27747;DHT22;15138;51.012;4.692;2023-03-14T09:29:29;9.30;99.90
27747;DHT22;15138;51.012;4.692;2023-03-14T09:31:58;9.30;99.90
27747;DHT22;15138;51.012;4.692;2023-03-14T09:34:27;9.30;99.90
27747;DHT22;15138;51.012;4.692;2023-03-14T09:36:56;9.10;99.90
27747;DHT22;15138;51.012;4.692;2023-03-14T09:39:25;9.20;99.90
27747;DHT22;15138;51.012;4.692;2023-03-14T09:41:55;9.20;99.90
27747;DHT22;15138;51.012;4.692;2023-03-14T09:44:28;9.20;99.90
27747;DHT22;15138;51.012;4.692;2023-03-14T09:47:00;9.30;99.90
27747;DHT22;15138;51.012;4.692;2023-03-14T09:49:32;9.30;99.90
27747;DHT22;15138;51.012;4.692;2023-03-14T09:52:06;9.30;99.90
27747;DHT22;15138;51.012;4.692;2023-03-14T09:54:42;9.10;99.90
27747;DHT22;15138;51.012;4.692;2023-03-14T09:57:13;9.00;99.90
27747;DHT22;15138;51.012;4.692;2023-03-14T09:59:44;8.80;99.90
27747;DHT22;15138;51.012;4.692;2023-03-14T10:02:17;8.70;99.90
27747;DHT22;15138;51.012;4.692;2023-03-14T10:04:47;8.60;99.90
27747;DHT22;15138;51.012;4.692;2023-03-14T10:07:19;8.60;99.90
27747;DHT22;15138;51.012;4.692;2023-03-14T10:09:50;8.50;99.90
27747;DHT22;15138;51.012;4.692;2023-03-14T10:12:19;8.40;99.90
27747;DHT22;15138;51.012;4.692;2023-03-14T10:14:49;8.50;99.90
27747;DHT22;15138;51.012;4.692;2023-03-14T10:17:20;8.60;99.90
27747;DHT22;15138;51.012;4.692;2023-03-14T10:19:54;8.60;99.90
27747;DHT22;15138;51.012;4.692;2023-03-14T10:22:26;8.70;1.00
27747;DHT22;15138;51.012;4.692;2023-03-14T10:24:57;8.80;99.90
27747;DHT22;15138;51.012;4.692;2023-03-14T10:27:29;8.90;99.90
27747;DHT22;15138;51.012;4.692;2023-03-14T10:29:59;8.80;1.00
27747;DHT22;15138;51.012;4.692;2023-03-14T10:32:31;8.70;1.00
27747;DHT22;15138;51.012;4.692;2023-03-14T10:35:07;8.70;1.00
27747;DHT22;15138;51.012;4.692;2023-03-14T10:37:48;8.70;99.90
27747;DHT22;15138;51.012;4.692;2023-03-14T10:40:19;8.60;99.90
27747;DHT22;15138;51.012;4.692;2023-03-14T10:42:48;8.60;99.90
27747;DHT22;15138;51.012;4.692;2023-03-14T10:45:37;8.30;99.90
27747;DHT22;15138;51.012;4.692;2023-03-14T10:48:20;8.20;99.90
27747;DHT22;15138;51.012;4.692;2023-03-14T10:50:53;8.30;1.00
27747;DHT22;15138;51.012;4.692;2023-03-14T10:53:24;8.40;1.00
27747;DHT22;15138;51.012;4.692;2023-03-14T10:55:56;8.40;1.00
27747;DHT22;15138;51.012;4.692;2023-03-14T10:58:26;8.50;1.00
27747;DHT22;15138;51.012;4.692;2023-03-14T11:01:08;8.50;1.00
27747;DHT22;15138;51.012;4.692;2023-03-14T11:03:43;8.50;1.00
27747;DHT22;15138;51.012;4.692;2023-03-14T11:06:19;8.50;1.00
27747;DHT22;15138;51.012;4.692;2023-03-14T11:08:53;8.50;1.00
27747;DHT22;15138;51.012;4.692;2023-03-14T11:11:27;8.50;1.00
27747;DHT22;15138;51.012;4.692;2023-03-14T11:14:06;8.60;1.00
27747;DHT22;15138;51.012;4.692;2023-03-14T11:16:43;8.50;1.00
27747;DHT22;15138;51.012;4.692;2023-03-14T11:19:23;8.30;1.00
27747;DHT22;15138;51.012;4.692;2023-03-14T11:22:02;8.50;1.00
27747;DHT22;15138;51.012;4.692;2023-03-14T11:24:45;8.70;1.00
27747;DHT22;15138;51.012;4.692;2023-03-14T11:27:18;8.50;1.00
27747;DHT22;15138;51.012;4.692;2023-03-14T11:29:55;8.80;1.00
27747;DHT22;15138;51.012;4.692;2023-03-14T11:32:36;9.00;1.00
27747;DHT22;15138;51.012;4.692;2023-03-14T11:35:16;8.90;1.00
27747;DHT22;15138;51.012;4.692;2023-03-14T11:37:47;9.10;1.00
27747;DHT22;15138;51.012;4.692;2023-03-14T11:40:21;9.10;1.00
27747;DHT22;15138;51.012;4.692;2023-03-14T11:42:59;9.10;1.00
27747;DHT22;15138;51.012;4.692;2023-03-14T11:45:33;9.30;1.00
27747;DHT22;15138;51.012;4.692;2023-03-14T11:48:16;9.10;1.00
27747;DHT22;15138;51.012;4.692;2023-03-14T11:50:49;9.20;1.00
27747;DHT22;15138;51.012;4.692;2023-03-14T11:53:22;9.10;99.90
27747;DHT22;15138;51.012;4.692;2023-03-14T11:55:55;8.80;99.90
27747;DHT22;15138;51.012;4.692;2023-03-14T11:58:25;8.90;1.00
27747;DHT22;15138;51.012;4.692;2023-03-14T12:00:57;9.00;1.00
27747;DHT22;15138;51.012;4.692;2023-03-14T12:03:29;8.80;99.90
27747;DHT22;15138;51.012;4.692;2023-03-14T12:06:05;8.80;99.90
27747;DHT22;15138;51.012;4.692;2023-03-14T12:08:47;8.60;99.90
27747;DHT22;15138;51.012;4.692;2023-03-14T12:11:35;8.50;99.90
27747;DHT22;15138;51.012;4.692;2023-03-14T12:14:17;8.40;99.90
27747;DHT22;15138;51.012;4.692;2023-03-14T12:16:48;8.20;99.90
27747;DHT22;15138;51.012;4.692;2023-03-14T12:19:38;8.30;99.90
27747;DHT22;15138;51.012;4.692;2023-03-14T12:22:23;8.20;99.90
27747;DHT22;15138;51.012;4.692;2023-03-14T12:24:56;8.30;99.90
27747;DHT22;15138;51.012;4.692;2023-03-14T12:27:47;8.10;99.90
27747;DHT22;15138;51.012;4.692;2023-03-14T12:30:26;8.00;99.90
27747;DHT22;15138;51.012;4.692;2023-03-14T12:33:19;8.00;99.90
27747;DHT22;15138;51.012;4.692;2023-03-14T12:35:50;8.00;99.90
27747;DHT22;15138;51.012;4.692;2023-03-14T12:38:25;8.00;99.90
27747;DHT22;15138;51.012;4.692;2023-03-14T12:41:01;8.10;99.90
27747;DHT22;15138;51.012;4.692;2023-03-14T12:43:33;8.10;99.90
27747;DHT22;15138;51.012;4.692;2023-03-14T12:46:09;8.10;99.90
27747;DHT22;15138;51.012;4.692;2023-03-14T12:48:44;8.20;99.90
27747;DHT22;15138;51.012;4.692;2023-03-14T12:51:14;8.40;99.90
27747;DHT22;15138;51.012;4.692;2023-03-14T12:53:59;8.50;99.90
27747;DHT22;15138;51.012;4.692;2023-03-14T12:56:45;8.50;99.90
27747;DHT22;15138;51.012;4.692;2023-03-14T12:59:31;8.30;99.90
27747;DHT22;15138;51.012;4.692;2023-03-14T13:02:02;8.50;99.90
27747;DHT22;15138;51.012;4.692;2023-03-14T13:04:34;8.70;99.90
27747;DHT22;15138;51.012;4.692;2023-03-14T13:07:11;8.80;99.90
27747;DHT22;15138;51.012;4.692;2023-03-14T13:10:02;8.70;99.90
27747;DHT22;15138;51.012;4.692;2023-03-14T13:12:38;8.50;99.90
27747;DHT22;15138;51.012;4.692;2023-03-14T13:15:31;8.50;99.90
27747;DHT22;15138;51.012;4.692;2023-03-14T13:18:03;8.20;99.90
27747;DHT22;15138;51.012;4.692;2023-03-14T13:20:40;7.70;99.90
27747;DHT22;15138;51.012;4.692;2023-03-14T13:23:20;7.30;99.90
27747;DHT22;15138;51.012;4.692;2023-03-14T13:25:49;7.20;54.20
27747;DHT22;15138;51.012;4.692;2023-03-14T13:28:18;7.30;76.50
27747;DHT22;15138;51.012;4.692;2023-03-14T13:30:49;7.50;99.90
27747;DHT22;15138;51.012;4.692;2023-03-14T13:33:20;7.60;99.90
27747;DHT22;15138;51.012;4.692;2023-03-14T13:35:55;7.80;99.90
27747;DHT22;15138;51.012;4.692;2023-03-14T13:38:25;7.80;99.90
27747;DHT22;15138;51.012;4.692;2023-03-14T13:40:56;7.90;99.90
27747;DHT22;15138;51.012;4.692;2023-03-14T13:43:29;8.00;99.90
27747;DHT22;15138;51.012;4.692;2023-03-14T13:46:05;7.90;99.90
27747;DHT22;15138;51.012;4.692;2023-03-14T13:48:43;7.90;99.90
27747;DHT22;15138;51.012;4.692;2023-03-14T13:51:13;7.90;99.90
27747;DHT22;15138;51.012;4.692;2023-03-14T13:53:43;7.90;99.90
27747;DHT22;15138;51.012;4.692;2023-03-14T13:56:12;8.00;99.90
27747;DHT22;15138;51.012;4.692;2023-03-14T13:58:42;7.90;99.90
27747;DHT22;15138;51.012;4.692;2023-03-14T14:01:14;8.00;99.90
27747;DHT22;15138;51.012;4.692;2023-03-14T14:03:46;8.10;99.90
27747;DHT22;15138;51.012;4.692;2023-03-14T14:06:26;8.10;99.90
27747;DHT22;15138;51.012;4.692;2023-03-14T14:08:56;8.10;99.90
27747;DHT22;15138;51.012;4.692;2023-03-14T14:11:34;8.30;99.90
27747;DHT22;15138;51.012;4.692;2023-03-14T14:14:20;8.20;99.90
27747;DHT22;15138;51.012;4.692;2023-03-14T14:16:52;8.30;99.90
27747;DHT22;15138;51.012;4.692;2023-03-14T14:19:22;8.60;99.90
27747;DHT22;15138;51.012;4.692;2023-03-14T14:21:52;8.70;99.90
27747;DHT22;15138;51.012;4.692;2023-03-14T14:24:21;8.70;99.90
27747;DHT22;15138;51.012;4.692;2023-03-14T14:26:51;8.80;99.90
27747;DHT22;15138;51.012;4.692;2023-03-14T14:29:30;8.60;1.00
27747;DHT22;15138;51.012;4.692;2023-03-14T14:32:02;8.60;1.00
27747;DHT22;15138;51.012;4.692;2023-03-14T14:34:39;8.60;1.00
27747;DHT22;15138;51.012;4.692;2023-03-14T14:37:21;8.60;1.00
27747;DHT22;15138;51.012;4.692;2023-03-14T14:39:55;8.60;1.00
27747;DHT22;15138;51.012;4.692;2023-03-14T14:42:27;8.50;1.00
27747;DHT22;15138;51.012;4.692;2023-03-14T14:44:56;8.40;1.00
27747;DHT22;15138;51.012;4.692;2023-03-14T14:47:28;8.50;1.00
27747;DHT22;15138;51.012;4.692;2023-03-14T14:50:04;8.40;1.00
27747;DHT22;15138;51.012;4.692;2023-03-14T14:52:37;8.30;1.00
27747;DHT22;15138;51.012;4.692;2023-03-14T14:55:16;8.30;1.00
27747;DHT22;15138;51.012;4.692;2023-03-14T14:57:49;8.30;1.00
27747;DHT22;15138;51.012;4.692;2023-03-14T15:00:20;8.20;1.00
27747;DHT22;15138;51.012;4.692;2023-03-14T15:02:52;8.20;1.00
27747;DHT22;15138;51.012;4.692;2023-03-14T15:05:23;8.10;1.00
27747;DHT22;15138;51.012;4.692;2023-03-14T15:07:53;8.20;1.00
27747;DHT22;15138;51.012;4.692;2023-03-14T15:10:23;8.10;1.00
27747;DHT22;15138;51.012;4.692;2023-03-14T15:12:52;8.10;1.00
27747;DHT22;15138;51.012;4.692;2023-03-14T15:15:20;8.10;1.00
27747;DHT22;15138;51.012;4.692;2023-03-14T15:17:50;8.10;1.00
27747;DHT22;15138;51.012;4.692;2023-03-14T15:20:19;8.20;1.00
27747;DHT22;15138;51.012;4.692;2023-03-14T15:22:50;8.20;1.00
27747;DHT22;15138;51.012;4.692;2023-03-14T15:25:18;8.20;1.00
27747;DHT22;15138;51.012;4.692;2023-03-14T15:28:15;8.20;1.00
27747;DHT22;15138;51.012;4.692;2023-03-14T15:30:44;8.20;1.00
27747;DHT22;15138;51.012;4.692;2023-03-14T15:33:14;8.30;1.00
27747;DHT22;15138;51.012;4.692;2023-03-14T15:35:43;8.20;1.00
27747;DHT22;15138;51.012;4.692;2023-03-14T15:38:12;8.10;1.00
27747;DHT22;15138;51.012;4.692;2023-03-14T15:40:40;8.20;1.00
27747;DHT22;15138;51.012;4.692;2023-03-14T15:43:09;8.20;1.00
27747;DHT22;15138;51.012;4.692;2023-03-14T15:45:39;8.20;1.00
27747;DHT22;15138;51.012;4.692;2023-03-14T15:48:20;8.20;1.00
27747;DHT22;15138;51.012;4.692;2023-03-14T15:50:49;8.10;1.00
27747;DHT22;15138;51.012;4.692;2023-03-14T15:53:17;8.10;1.00
27747;DHT22;15138;51.012;4.692;2023-03-14T15:55:46;8.00;1.00
27747;DHT22;15138;51.012;4.692;2023-03-14T15:58:16;8.00;1.00
27747;DHT22;15138;51.012;4.692;2023-03-14T16:00:48;7.90;1.00
27747;DHT22;15138;51.012;4.692;2023-03-14T16:03:16;7.90;1.00
27747;DHT22;15138;51.012;4.692;2023-03-14T16:05:46;7.80;1.00
27747;DHT22;15138;51.012;4.692;2023-03-14T16:08:14;7.80;1.00
27747;DHT22;15138;51.012;4.692;2023-03-14T16:10:43;7.80;1.00
27747;DHT22;15138;51.012;4.692;2023-03-14T16:13:12;7.70;1.00
27747;DHT22;15138;51.012;4.692;2023-03-14T16:15:41;7.70;1.00
27747;DHT22;15138;51.012;4.692;2023-03-14T16:18:10;7.60;1.00
27747;DHT22;15138;51.012;4.692;2023-03-14T16:21:00;7.60;1.00
27747;DHT22;15138;51.012;4.692;2023-03-14T16:23:28;7.60;1.00
27747;DHT22;15138;51.012;4.692;2023-03-14T16:25:58;7.60;1.00
27747;DHT22;15138;51.012;4.692;2023-03-14T16:28:26;7.60;1.00
27747;DHT22;15138;51.012;4.692;2023-03-14T16:31:00;7.50;1.00
27747;DHT22;15138;51.012;4.692;2023-03-14T16:33:29;7.50;1.00
27747;DHT22;15138;51.012;4.692;2023-03-14T16:36:00;7.40;1.00
27747;DHT22;15138;51.012;4.692;2023-03-14T16:38:32;7.40;1.00
27747;DHT22;15138;51.012;4.692;2023-03-14T16:41:02;7.40;1.00
27747;DHT22;15138;51.012;4.692;2023-03-14T16:43:32;7.40;1.00
27747;DHT22;15138;51.012;4.692;2023-03-14T16:46:04;7.40;1.00
27747;DHT22;15138;51.012;4.692;2023-03-14T16:48:33;7.40;1.00
27747;DHT22;15138;51.012;4.692;2023-03-14T16:51:03;7.40;1.00
27747;DHT22;15138;51.012;4.692;2023-03-14T16:53:31;7.40;1.00
27747;DHT22;15138;51.012;4.692;2023-03-14T16:56:00;7.30;1.00
27747;DHT22;15138;51.012;4.692;2023-03-14T16:58:29;7.30;1.00
27747;DHT22;15138;51.012;4.692;2023-03-14T17:00:57;7.30;1.00
27747;DHT22;15138;51.012;4.692;2023-03-14T17:03:36;7.20;1.00
27747;DHT22;15138;51.012;4.692;2023-03-14T17:06:06;7.30;1.00
27747;DHT22;15138;51.012;4.692;2023-03-14T17:08:35;7.20;1.00
27747;DHT22;15138;51.012;4.692;2023-03-14T17:11:03;7.20;1.00
27747;DHT22;15138;51.012;4.692;2023-03-14T17:13:33;7.20;1.00
27747;DHT22;15138;51.012;4.692;2023-03-14T17:16:02;7.20;1.00
27747;DHT22;15138;51.012;4.692;2023-03-14T17:18:30;7.20;1.00
27747;DHT22;15138;51.012;4.692;2023-03-14T17:20:59;7.20;1.00
27747;DHT22;15138;51.012;4.692;2023-03-14T17:23:31;7.20;1.00
27747;DHT22;15138;51.012;4.692;2023-03-14T17:25:59;7.10;1.00
27747;DHT22;15138;51.012;4.692;2023-03-14T17:28:28;7.00;1.00
27747;DHT22;15138;51.012;4.692;2023-03-14T17:31:07;7.00;1.00
27747;DHT22;15138;51.012;4.692;2023-03-14T17:33:35;7.00;1.00
27747;DHT22;15138;51.012;4.692;2023-03-14T17:36:05;7.00;1.00
27747;DHT22;15138;51.012;4.692;2023-03-14T17:38:35;7.00;1.00
27747;DHT22;15138;51.012;4.692;2023-03-14T17:41:06;6.90;1.00
27747;DHT22;15138;51.012;4.692;2023-03-14T17:43:35;6.90;1.00
27747;DHT22;15138;51.012;4.692;2023-03-14T17:46:06;6.90;1.00
27747;DHT22;15138;51.012;4.692;2023-03-14T17:48:38;6.80;1.00
27747;DHT22;15138;51.012;4.692;2023-03-14T17:51:06;6.80;1.00
27747;DHT22;15138;51.012;4.692;2023-03-14T17:53:37;6.80;1.00
27747;DHT22;15138;51.012;4.692;2023-03-14T17:56:07;6.70;1.00
27747;DHT22;15138;51.012;4.692;2023-03-14T17:58:35;6.60;1.00
27747;DHT22;15138;51.012;4.692;2023-03-14T18:01:08;6.60;1.00
27747;DHT22;15138;51.012;4.692;2023-03-14T18:03:37;6.60;1.00
27747;DHT22;15138;51.012;4.692;2023-03-14T18:06:06;6.60;1.00
27747;DHT22;15138;51.012;4.692;2023-03-14T18:08:37;6.50;1.00
27747;DHT22;15138;51.012;4.692;2023-03-14T18:11:09;6.40;1.00
27747;DHT22;15138;51.012;4.692;2023-03-14T18:13:39;6.40;1.00
27747;DHT22;15138;51.012;4.692;2023-03-14T18:16:09;6.20;1.00
27747;DHT22;15138;51.012;4.692;2023-03-14T18:18:40;6.20;1.00
27747;DHT22;15138;51.012;4.692;2023-03-14T18:21:09;6.10;1.00
27747;DHT22;15138;51.012;4.692;2023-03-14T18:23:39;6.10;1.00
27747;DHT22;15138;51.012;4.692;2023-03-14T18:26:07;6.00;1.00
27747;DHT22;15138;51.012;4.692;2023-03-14T18:28:36;5.90;1.00
27747;DHT22;15138;51.012;4.692;2023-03-14T18:31:06;5.80;1.00
27747;DHT22;15138;51.012;4.692;2023-03-14T18:33:35;5.80;1.00
27747;DHT22;15138;51.012;4.692;2023-03-14T18:36:06;5.70;1.00
27747;DHT22;15138;51.012;4.692;2023-03-14T18:38:35;5.70;1.00
27747;DHT22;15138;51.012;4.692;2023-03-14T18:41:12;5.60;1.00
27747;DHT22;15138;51.012;4.692;2023-03-14T18:43:41;5.60;1.00
27747;DHT22;15138;51.012;4.692;2023-03-14T18:46:10;5.60;1.00
27747;DHT22;15138;51.012;4.692;2023-03-14T18:48:39;5.60;1.00
27747;DHT22;15138;51.012;4.692;2023-03-14T18:51:09;5.60;1.00
27747;DHT22;15138;51.012;4.692;2023-03-14T18:53:38;5.50;1.00
27747;DHT22;15138;51.012;4.692;2023-03-14T18:56:09;5.40;1.00
27747;DHT22;15138;51.012;4.692;2023-03-14T18:58:40;5.30;1.00
27747;DHT22;15138;51.012;4.692;2023-03-14T19:01:09;5.30;1.00
27747;DHT22;15138;51.012;4.692;2023-03-14T19:03:39;5.30;1.00
27747;DHT22;15138;51.012;4.692;2023-03-14T19:06:09;5.20;1.00
27747;DHT22;15138;51.012;4.692;2023-03-14T19:08:38;5.30;1.00
27747;DHT22;15138;51.012;4.692;2023-03-14T19:11:11;5.30;1.00
27747;DHT22;15138;51.012;4.692;2023-03-14T19:13:40;5.20;1.00
27747;DHT22;15138;51.012;4.692;2023-03-14T19:16:10;5.20;1.00
27747;DHT22;15138;51.012;4.692;2023-03-14T19:18:40;5.20;1.00
27747;DHT22;15138;51.012;4.692;2023-03-14T19:21:10;5.10;1.00
27747;DHT22;15138;51.012;4.692;2023-03-14T19:23:40;5.00;1.00
27747;DHT22;15138;51.012;4.692;2023-03-14T19:26:09;5.00;1.00
27747;DHT22;15138;51.012;4.692;2023-03-14T19:28:38;5.00;1.00
27747;DHT22;15138;51.012;4.692;2023-03-14T19:31:06;5.00;1.00
27747;DHT22;15138;51.012;4.692;2023-03-14T19:33:34;4.90;1.00
27747;DHT22;15138;51.012;4.692;2023-03-14T19:36:04;4.90;1.00
27747;DHT22;15138;51.012;4.692;2023-03-14T19:38:32;4.90;1.00